createdAt,value
2017-09-24T00:00:07.368Z,13.41
2017-09-24T00:02:34.825Z,13.41
2017-09-24T00:05:02.325Z,13.38
2017-09-24T00:07:29.833Z,13.35
2017-09-24T00:09:57.293Z,13.41
2017-09-24T00:12:24.769Z,13.39
2017-09-24T00:14:52.236Z,13.29
2017-09-24T00:17:19.739Z,13.29
2017-09-24T00:19:47.194Z,13.19
2017-09-24T00:22:14.722Z,13.18
2017-09-24T00:24:42.237Z,13.10
2017-09-24T00:27:09.733Z,13.08
2017-09-24T00:29:37.210Z,13.06
2017-09-24T00:32:04.673Z,13.04
2017-09-24T00:34:32.206Z,13.06
2017-09-24T00:36:59.677Z,13.04
2017-09-24T00:39:27.174Z,12.99
2017-09-24T00:41:54.620Z,13.02
2017-09-24T00:44:22.102Z,13.08
2017-09-24T00:46:49.557Z,13.08
2017-09-24T00:49:17.167Z,13.03
2017-09-24T00:51:44.637Z,12.99
2017-09-24T00:54:12.113Z,12.99
2017-09-24T00:56:39.617Z,12.99
2017-09-24T00:59:07.101Z,12.98
2017-09-24T01:01:34.745Z,12.81
2017-09-24T01:04:02.218Z,12.76
2017-09-24T01:06:29.677Z,12.75
2017-09-24T01:08:57.164Z,12.81
2017-09-24T01:11:24.626Z,12.85
2017-09-24T01:13:52.162Z,12.90
2017-09-24T01:16:19.645Z,12.89
2017-09-24T01:18:47.135Z,12.77
2017-09-24T01:21:14.588Z,12.76
2017-09-24T01:23:42.422Z,12.69
2017-09-24T01:26:09.877Z,12.64
2017-09-24T01:28:37.378Z,12.53
2017-09-24T01:31:04.862Z,12.46
2017-09-24T01:33:32.697Z,12.42
2017-09-24T01:36:00.150Z,12.49
2017-09-24T01:38:27.612Z,12.50
2017-09-24T01:40:55.453Z,12.55
2017-09-24T01:43:22.938Z,12.48
2017-09-24T01:45:50.397Z,12.42
2017-09-24T01:48:17.897Z,12.40
2017-09-24T01:50:45.350Z,12.51
2017-09-24T01:53:12.857Z,12.43
2017-09-24T01:55:40.392Z,12.31
2017-09-24T01:58:07.862Z,12.19
2017-09-24T02:00:35.373Z,12.22
2017-09-24T02:03:02.837Z,12.24
2017-09-24T02:05:30.323Z,12.21
2017-09-24T02:07:57.778Z,12.23
2017-09-24T02:10:25.262Z,12.12
2017-09-24T02:12:52.720Z,12.09
2017-09-24T02:15:20.334Z,12.10
2017-09-24T02:17:47.833Z,12.13
2017-09-24T02:20:15.353Z,11.97
2017-09-24T02:22:43.721Z,11.93
2017-09-24T02:25:11.318Z,12.03
2017-09-24T02:27:38.793Z,12.03
2017-09-24T02:30:06.301Z,12.08
2017-09-24T02:32:33.797Z,12.02
2017-09-24T02:35:01.270Z,11.92
2017-09-24T02:37:28.781Z,11.94
2017-09-24T02:39:57.011Z,11.95
2017-09-24T02:42:24.514Z,12.02
2017-09-24T02:44:52.012Z,11.92
2017-09-24T02:47:19.480Z,11.87
2017-09-24T02:49:46.966Z,11.89
2017-09-24T02:52:14.433Z,11.89
2017-09-24T02:54:41.938Z,11.85
2017-09-24T02:57:09.414Z,11.92
2017-09-24T02:59:36.932Z,11.93
2017-09-24T03:02:04.412Z,11.93
2017-09-24T03:04:31.902Z,11.92
2017-09-24T03:06:59.354Z,11.85
2017-09-24T03:09:26.869Z,11.80
2017-09-24T03:11:54.375Z,11.84
2017-09-24T03:14:21.828Z,12.01
2017-09-24T03:16:49.319Z,11.96
2017-09-24T03:19:16.786Z,11.99
2017-09-24T03:21:44.303Z,11.98
2017-09-24T03:24:11.807Z,11.83
2017-09-24T03:26:39.260Z,11.81
2017-09-24T03:29:06.753Z,11.82
2017-09-24T03:31:34.221Z,11.73
2017-09-24T03:34:01.731Z,11.57
2017-09-24T03:36:29.199Z,11.57
2017-09-24T03:38:56.692Z,11.37
2017-09-24T03:41:24.171Z,11.23
2017-09-24T03:43:51.660Z,11.38
2017-09-24T03:46:19.148Z,11.47
2017-09-24T03:48:46.610Z,11.46
2017-09-24T03:51:14.085Z,11.53
2017-09-24T03:53:41.567Z,11.59
2017-09-24T03:56:09.077Z,11.62
2017-09-24T03:58:36.540Z,11.60
2017-09-24T04:01:04.062Z,11.75
2017-09-24T04:03:31.539Z,11.63
2017-09-24T04:05:59.021Z,11.54
2017-09-24T04:08:26.517Z,11.48
2017-09-24T04:10:54.010Z,11.34
2017-09-24T04:13:21.570Z,11.35
2017-09-24T04:15:49.032Z,11.39
2017-09-24T04:18:16.532Z,11.38
2017-09-24T04:20:44.005Z,11.31
2017-09-24T04:23:11.510Z,11.32
2017-09-24T04:25:39.025Z,11.32
2017-09-24T04:28:06.557Z,11.34
2017-09-24T04:30:34.022Z,11.41
2017-09-24T04:33:01.518Z,11.39
2017-09-24T04:35:28.988Z,11.31
2017-09-24T04:37:56.670Z,11.29
2017-09-24T04:40:24.141Z,11.37
2017-09-24T04:42:51.962Z,11.33
2017-09-24T04:45:19.423Z,11.36
2017-09-24T04:47:46.887Z,11.28
2017-09-24T04:50:14.383Z,11.25
2017-09-24T04:52:41.866Z,11.31
2017-09-24T04:55:09.356Z,11.28
2017-09-24T04:57:36.826Z,11.33
2017-09-24T05:00:04.477Z,11.17
2017-09-24T05:02:31.954Z,11.30
2017-09-24T05:04:59.433Z,11.18
2017-09-24T05:07:27.077Z,11.10
2017-09-24T05:09:54.533Z,11.08
2017-09-24T05:12:21.989Z,11.26
2017-09-24T05:14:49.488Z,11.39
2017-09-24T05:17:16.969Z,11.41
2017-09-24T05:19:44.450Z,11.48
2017-09-24T05:22:11.966Z,11.47
2017-09-24T05:24:39.438Z,11.44
2017-09-24T05:27:07.032Z,11.39
2017-09-24T05:29:34.526Z,11.37
2017-09-24T05:32:02.009Z,11.47
2017-09-24T05:34:29.491Z,11.47
2017-09-24T05:36:56.948Z,11.55
2017-09-24T05:39:24.487Z,11.59
2017-09-24T05:41:51.959Z,11.58
2017-09-24T05:44:19.421Z,11.53
2017-09-24T05:46:46.946Z,11.49
2017-09-24T05:49:14.417Z,11.52
2017-09-24T05:51:41.926Z,11.62
2017-09-24T05:54:09.392Z,11.48
2017-09-24T05:56:36.891Z,11.48
2017-09-24T05:59:04.428Z,11.55
2017-09-24T06:01:31.905Z,11.53
2017-09-24T06:03:59.401Z,11.61
2017-09-24T06:06:26.900Z,11.64
2017-09-24T06:08:54.414Z,11.61
2017-09-24T06:11:21.877Z,11.65
2017-09-24T06:13:49.381Z,11.68
2017-09-24T06:16:16.866Z,11.69
2017-09-24T06:18:44.347Z,11.72
2017-09-24T06:21:11.809Z,11.80
2017-09-24T06:23:39.366Z,11.74
2017-09-24T06:26:06.874Z,11.78
2017-09-24T06:28:34.354Z,11.80
2017-09-24T06:31:01.850Z,11.79
2017-09-24T06:33:29.333Z,11.82
2017-09-24T06:35:56.825Z,11.84
2017-09-24T06:38:24.312Z,11.67
2017-09-24T06:40:51.831Z,11.79
2017-09-24T06:43:19.296Z,11.84
2017-09-24T06:45:47.026Z,11.78
2017-09-24T06:48:14.517Z,11.90
2017-09-24T06:50:41.997Z,11.85
2017-09-24T06:53:09.522Z,12.03
2017-09-24T06:55:37.014Z,12.07
2017-09-24T06:58:04.536Z,12.05
2017-09-24T07:00:32.028Z,12.00
2017-09-24T07:02:59.655Z,11.94
2017-09-24T07:05:27.128Z,12.02
2017-09-24T07:07:54.598Z,12.07
2017-09-24T07:10:22.130Z,12.05
2017-09-24T07:12:49.580Z,12.19
2017-09-24T07:15:17.097Z,12.22
2017-09-24T07:17:44.634Z,12.37
2017-09-24T07:20:12.186Z,12.47
2017-09-24T07:22:39.658Z,12.55
2017-09-24T07:25:07.198Z,12.60
2017-09-24T07:27:34.721Z,12.66
2017-09-24T07:30:02.220Z,12.69
2017-09-24T07:32:29.766Z,12.72
2017-09-24T07:34:57.229Z,12.76
2017-09-24T07:37:24.749Z,12.97
2017-09-24T07:39:52.235Z,12.99
2017-09-24T07:42:19.762Z,13.14
2017-09-24T07:44:47.571Z,13.20
2017-09-24T07:47:15.068Z,13.38
2017-09-24T07:49:42.540Z,13.45
2017-09-24T07:52:10.021Z,13.46
2017-09-24T07:54:37.535Z,13.50
2017-09-24T07:57:05.013Z,13.49
2017-09-24T07:59:32.529Z,13.53
2017-09-24T08:02:00.035Z,13.58
2017-09-24T08:04:27.537Z,13.33
2017-09-24T08:06:55.091Z,13.39
2017-09-24T08:09:22.577Z,13.57
2017-09-24T08:11:50.140Z,13.75
2017-09-24T08:14:17.657Z,13.87
2017-09-24T08:16:45.162Z,13.96
2017-09-24T08:19:12.620Z,13.94
2017-09-24T08:21:40.138Z,14.06
2017-09-24T08:24:07.611Z,14.25
2017-09-24T08:26:35.130Z,14.32
2017-09-24T08:29:02.679Z,14.37
2017-09-24T08:31:30.218Z,14.39
2017-09-24T08:33:57.718Z,14.57
2017-09-24T08:36:25.198Z,14.53
2017-09-24T08:38:52.796Z,14.41
2017-09-24T08:41:20.286Z,14.31
2017-09-24T08:43:47.805Z,14.18
2017-09-24T08:46:15.322Z,14.08
2017-09-24T08:48:42.810Z,14.06
2017-09-24T08:51:10.307Z,14.12
2017-09-24T08:53:37.760Z,14.25
2017-09-24T08:56:05.246Z,14.58
2017-09-24T08:58:32.742Z,14.81
2017-09-24T09:01:00.229Z,15.02
2017-09-24T09:03:27.733Z,15.10
2017-09-24T09:05:55.189Z,15.25
2017-09-24T09:08:22.688Z,15.44
2017-09-24T09:10:50.160Z,15.55
2017-09-24T09:13:17.661Z,15.65
2017-09-24T09:15:45.125Z,15.73
2017-09-24T09:18:12.583Z,15.75
2017-09-24T09:20:40.084Z,15.90
2017-09-24T09:23:07.550Z,16.09
2017-09-24T09:25:35.063Z,16.24
2017-09-24T09:28:02.522Z,16.35
2017-09-24T09:30:30.004Z,16.47
2017-09-24T09:33:09.165Z,16.60
2017-09-24T09:35:36.693Z,16.53
2017-09-24T09:38:04.174Z,16.71
2017-09-24T09:40:32.008Z,16.81
2017-09-24T09:42:59.533Z,16.83
2017-09-24T09:45:38.802Z,16.80
2017-09-24T09:48:06.284Z,16.93
2017-09-24T09:50:33.757Z,16.96
2017-09-24T09:53:01.373Z,17.12
2017-09-24T09:55:28.873Z,17.22
2017-09-24T09:57:56.861Z,17.33
2017-09-24T10:00:24.353Z,17.38
2017-09-24T10:02:52.056Z,17.50
2017-09-24T10:05:19.541Z,17.63
2017-09-24T10:07:58.717Z,17.73
2017-09-24T10:10:26.185Z,17.75
2017-09-24T10:12:53.676Z,17.92
2017-09-24T10:15:21.179Z,18.04
2017-09-24T10:17:48.690Z,18.12
2017-09-24T10:20:16.203Z,18.05
2017-09-24T10:22:43.659Z,18.26
2017-09-24T10:25:11.159Z,18.42
2017-09-24T10:27:38.664Z,18.49
2017-09-24T10:30:17.837Z,18.57
2017-09-24T10:32:45.299Z,18.66
2017-09-24T10:35:12.769Z,18.80
2017-09-24T10:37:40.267Z,18.93
2017-09-24T10:40:07.752Z,19.09
2017-09-24T10:42:35.464Z,19.15
2017-09-24T10:45:02.966Z,19.27
2017-09-24T10:47:30.454Z,19.39
2017-09-24T10:49:57.950Z,19.42
2017-09-24T10:52:25.470Z,19.48
2017-09-24T10:54:52.950Z,19.65
2017-09-24T10:57:20.434Z,19.68
2017-09-24T10:59:47.987Z,19.82
2017-09-24T11:02:15.499Z,19.76
2017-09-24T11:04:43.013Z,19.92
2017-09-24T11:07:10.498Z,19.99
2017-09-24T11:09:37.989Z,20.14
2017-09-24T11:12:05.461Z,20.32
2017-09-24T11:14:32.951Z,20.27
2017-09-24T11:17:00.504Z,20.57
2017-09-24T11:19:28.099Z,20.29
2017-09-24T11:21:55.603Z,20.35
2017-09-24T11:24:23.095Z,20.61
2017-09-24T11:26:50.591Z,20.71
2017-09-24T11:29:18.878Z,20.86
2017-09-24T11:31:46.366Z,20.97
2017-09-24T11:34:13.848Z,20.40
2017-09-24T11:36:41.337Z,20.52
2017-09-24T11:39:08.830Z,20.58
2017-09-24T11:41:36.305Z,20.71
2017-09-24T11:44:08.226Z,20.68
2017-09-24T11:46:35.722Z,20.67
2017-09-24T11:49:03.225Z,20.75
2017-09-24T11:51:30.685Z,20.78
2017-09-24T11:53:58.177Z,20.81
2017-09-24T11:56:26.429Z,20.85
2017-09-24T11:58:53.925Z,20.83
2017-09-24T12:01:21.397Z,20.84
2017-09-24T12:03:48.891Z,20.95
2017-09-24T12:06:16.426Z,20.94
2017-09-24T12:08:43.898Z,20.89
2017-09-24T12:11:11.444Z,20.89
2017-09-24T12:13:38.919Z,20.88
2017-09-24T12:16:06.438Z,20.90
2017-09-24T12:18:33.933Z,20.88
2017-09-24T12:21:01.421Z,20.88
2017-09-24T12:23:28.884Z,20.91
2017-09-24T12:25:56.376Z,20.92
2017-09-24T12:28:23.869Z,20.93
2017-09-24T12:30:51.358Z,20.96
2017-09-24T12:33:18.840Z,20.98
2017-09-24T12:35:46.347Z,20.99
2017-09-24T12:38:13.821Z,21.04
2017-09-24T12:40:41.316Z,21.10
2017-09-24T12:43:09.022Z,21.16
2017-09-24T12:45:36.529Z,21.24
2017-09-24T12:48:04.042Z,21.32
2017-09-24T12:50:31.526Z,21.50
2017-09-24T12:52:59.020Z,21.65
2017-09-24T12:55:26.511Z,21.68
2017-09-24T12:57:53.998Z,21.76
2017-09-24T13:00:21.481Z,21.77
2017-09-24T13:02:48.987Z,21.85
2017-09-24T13:05:16.477Z,21.85
2017-09-24T13:07:43.986Z,21.99
2017-09-24T13:10:11.476Z,22.12
2017-09-24T13:12:38.977Z,22.33
2017-09-24T13:15:06.522Z,22.41
2017-09-24T13:17:34.439Z,22.61
2017-09-24T13:20:01.922Z,22.82
2017-09-24T13:22:29.418Z,23.05
2017-09-24T13:24:56.954Z,22.82
2017-09-24T13:27:24.427Z,22.48
2017-09-24T13:29:52.873Z,22.11
2017-09-24T13:32:20.336Z,21.83
2017-09-24T13:34:48.548Z,21.80
2017-09-24T13:37:16.010Z,21.38
2017-09-24T13:39:43.485Z,21.13
2017-09-24T13:42:10.988Z,21.16
2017-09-24T13:44:38.462Z,21.20
2017-09-24T13:47:05.974Z,21.27
2017-09-24T13:49:33.748Z,21.22
2017-09-24T13:52:01.269Z,21.22
2017-09-24T13:54:28.765Z,21.17
2017-09-24T13:56:56.236Z,21.07
2017-09-24T13:59:23.737Z,21.15
2017-09-24T14:01:51.216Z,21.13
2017-09-24T14:04:18.713Z,21.33
2017-09-24T14:06:46.172Z,21.38
2017-09-24T14:09:13.661Z,21.43
2017-09-24T14:11:41.147Z,21.48
2017-09-24T14:14:08.649Z,21.53
2017-09-24T14:16:36.145Z,21.53
2017-09-24T14:19:03.822Z,21.59
2017-09-24T14:21:31.289Z,21.62
2017-09-24T14:23:58.787Z,21.68
2017-09-24T14:26:26.261Z,21.65
2017-09-24T14:28:53.824Z,21.68
2017-09-24T14:31:21.354Z,21.59
2017-09-24T14:33:48.829Z,21.54
2017-09-24T14:36:16.318Z,21.47
2017-09-24T14:38:43.788Z,21.45
2017-09-24T14:41:11.384Z,21.46
2017-09-24T14:43:38.847Z,21.51
2017-09-24T14:46:06.363Z,21.30
2017-09-24T14:48:33.827Z,21.35
2017-09-24T14:51:01.336Z,21.39
2017-09-24T14:53:28.841Z,21.49
2017-09-24T14:55:56.335Z,21.49
2017-09-24T14:58:23.806Z,21.62
2017-09-24T15:00:51.339Z,21.70
2017-09-24T15:03:18.832Z,21.67
2017-09-24T15:05:46.322Z,21.75
2017-09-24T15:08:13.822Z,21.76
2017-09-24T15:10:41.314Z,21.80
2017-09-24T15:13:08.821Z,21.91
2017-09-24T15:15:36.294Z,21.97
2017-09-24T15:18:03.786Z,22.00
2017-09-24T15:20:31.305Z,21.96
2017-09-24T15:22:58.792Z,21.92
2017-09-24T15:25:27.108Z,21.86
2017-09-24T15:27:54.601Z,21.73
2017-09-24T15:30:22.107Z,21.58
2017-09-24T15:32:49.680Z,21.56
2017-09-24T15:35:17.138Z,21.55
2017-09-24T15:37:44.625Z,21.44
2017-09-24T15:40:12.233Z,21.28
2017-09-24T15:42:39.714Z,21.17
2017-09-24T15:45:07.228Z,21.08
2017-09-24T15:47:34.819Z,21.12
2017-09-24T15:50:02.328Z,21.14
2017-09-24T15:52:29.808Z,21.16
2017-09-24T15:54:57.285Z,21.09
2017-09-24T15:57:24.800Z,21.07
2017-09-24T15:59:52.267Z,21.04
2017-09-24T16:02:19.782Z,20.86
2017-09-24T16:04:47.293Z,20.74
2017-09-24T16:07:14.773Z,20.51
2017-09-24T16:09:42.309Z,20.46
2017-09-24T16:12:09.893Z,20.43
2017-09-24T16:14:37.383Z,20.43
2017-09-24T16:17:04.849Z,20.42
2017-09-24T16:19:32.350Z,20.34
2017-09-24T16:21:59.852Z,20.28
2017-09-24T16:24:27.325Z,20.10
2017-09-24T16:26:55.241Z,20.03
2017-09-24T16:29:22.722Z,19.99
2017-09-24T16:31:50.205Z,19.99
2017-09-24T16:34:17.693Z,19.89
2017-09-24T16:36:45.164Z,19.87
2017-09-24T16:39:12.681Z,19.79
2017-09-24T16:41:40.146Z,19.78
2017-09-24T16:44:07.634Z,19.83
2017-09-24T16:46:35.127Z,19.79
2017-09-24T16:49:02.621Z,19.68
2017-09-24T16:51:30.105Z,19.62
2017-09-24T16:53:57.599Z,19.62
2017-09-24T16:56:25.088Z,19.60
2017-09-24T16:58:52.575Z,19.61
2017-09-24T17:01:20.072Z,19.53
2017-09-24T17:03:47.543Z,19.47
2017-09-24T17:06:15.067Z,19.42
2017-09-24T17:08:42.555Z,19.35
2017-09-24T17:11:10.074Z,19.29
2017-09-24T17:13:37.550Z,19.27
2017-09-24T17:16:05.064Z,19.17
2017-09-24T17:18:32.561Z,19.09
2017-09-24T17:21:00.095Z,19.07
2017-09-24T17:23:27.581Z,19.03
2017-09-24T17:25:55.257Z,18.97
2017-09-24T17:28:22.743Z,18.93
2017-09-24T17:30:50.217Z,18.89
2017-09-24T17:33:17.704Z,18.83
2017-09-24T17:35:45.193Z,18.79
2017-09-24T17:38:12.685Z,18.76
2017-09-24T17:40:40.140Z,18.76
2017-09-24T17:43:07.691Z,18.75
2017-09-24T17:45:35.163Z,18.68
2017-09-24T17:48:05.454Z,18.59
2017-09-24T17:50:32.977Z,18.53
2017-09-24T17:53:00.484Z,18.45
2017-09-24T17:55:27.945Z,18.43
2017-09-24T17:57:55.454Z,18.43
2017-09-24T18:00:22.914Z,18.33
2017-09-24T18:02:50.433Z,18.29
2017-09-24T18:05:17.937Z,18.30
2017-09-24T18:07:45.406Z,18.30
2017-09-24T18:10:12.906Z,18.23
2017-09-24T18:12:40.377Z,18.17
2017-09-24T18:15:07.910Z,18.06
2017-09-24T18:17:35.385Z,17.97
2017-09-24T18:20:02.905Z,17.69
2017-09-24T18:22:30.367Z,17.79
2017-09-24T18:24:57.887Z,17.61
2017-09-24T18:27:25.371Z,17.61
2017-09-24T18:29:52.869Z,17.60
2017-09-24T18:32:20.382Z,17.55
2017-09-24T18:34:48.626Z,17.50
2017-09-24T18:37:16.144Z,17.44
2017-09-24T18:39:44.659Z,17.42
2017-09-24T18:42:12.180Z,17.35
2017-09-24T18:44:39.660Z,17.30
2017-09-24T18:47:07.954Z,17.20
2017-09-24T18:49:35.437Z,17.21
2017-09-24T18:52:02.935Z,17.15
2017-09-24T18:54:30.423Z,17.09
2017-09-24T18:56:57.957Z,17.04
2017-09-24T18:59:25.469Z,16.99
2017-09-24T19:01:53.003Z,16.99
2017-09-24T19:04:20.504Z,16.96
2017-09-24T19:06:48.091Z,16.86
2017-09-24T19:09:15.582Z,16.83
2017-09-24T19:11:43.078Z,16.79
2017-09-24T19:14:10.569Z,16.76
2017-09-24T19:16:38.071Z,16.75
2017-09-24T19:19:05.595Z,16.60
2017-09-24T19:21:33.971Z,16.48
2017-09-24T19:24:01.514Z,16.43
2017-09-24T19:26:29.029Z,16.41
2017-09-24T19:28:56.584Z,16.35
2017-09-24T19:31:24.100Z,16.40
2017-09-24T19:33:51.644Z,16.39
2017-09-24T19:36:19.958Z,16.24
2017-09-24T19:38:47.476Z,16.24
2017-09-24T19:41:14.985Z,16.10
2017-09-24T19:43:42.496Z,16.07
2017-09-24T19:46:10.168Z,16.00
2017-09-24T19:48:37.667Z,15.92
2017-09-24T19:51:05.240Z,15.93
2017-09-24T19:53:32.727Z,15.88
2017-09-24T19:56:00.254Z,15.90
2017-09-24T19:58:27.737Z,15.90
2017-09-24T20:00:55.274Z,15.85
2017-09-24T20:03:22.748Z,15.80
2017-09-24T20:05:50.277Z,15.66
2017-09-24T20:08:17.759Z,15.69
2017-09-24T20:10:45.284Z,15.70
2017-09-24T20:13:12.785Z,15.61
2017-09-24T20:15:40.305Z,15.60
2017-09-24T20:18:07.805Z,15.62
2017-09-24T20:20:35.290Z,15.62
2017-09-24T20:23:02.800Z,15.53
2017-09-24T20:25:30.262Z,15.42
2017-09-24T20:27:57.783Z,15.41
2017-09-24T20:30:25.261Z,15.37
2017-09-24T20:32:53.267Z,15.34
2017-09-24T20:35:20.734Z,15.35
2017-09-24T20:37:48.221Z,15.37
2017-09-24T20:40:15.698Z,15.28
2017-09-24T20:42:43.314Z,15.22
2017-09-24T20:45:10.837Z,15.13
2017-09-24T20:47:38.329Z,15.17
2017-09-24T20:50:05.825Z,15.05
2017-09-24T20:52:33.309Z,15.02
2017-09-24T20:55:00.806Z,14.95
2017-09-24T20:57:28.264Z,14.91
2017-09-24T20:59:55.727Z,14.81
2017-09-24T21:02:23.243Z,14.78
2017-09-24T21:04:50.887Z,14.76
2017-09-24T21:07:18.379Z,14.74
2017-09-24T21:09:45.866Z,14.79
2017-09-24T21:12:13.345Z,14.78
2017-09-24T21:14:40.818Z,14.72
2017-09-24T21:17:08.325Z,14.51
2017-09-24T21:19:35.818Z,14.39
2017-09-24T21:22:03.291Z,14.42
2017-09-24T21:24:30.783Z,14.51
2017-09-24T21:26:58.284Z,14.57
2017-09-24T21:29:25.781Z,14.55
2017-09-24T21:31:53.282Z,14.52
2017-09-24T21:34:20.771Z,14.47
2017-09-24T21:36:48.217Z,14.54
2017-09-24T21:39:15.721Z,14.55
2017-09-24T21:41:43.212Z,14.40
2017-09-24T21:44:10.682Z,14.32
2017-09-24T21:46:38.191Z,14.28
2017-09-24T21:49:05.683Z,14.21
2017-09-24T21:51:33.144Z,14.13
2017-09-24T21:54:00.656Z,14.10
2017-09-24T21:56:28.118Z,14.13
2017-09-24T21:58:55.780Z,14.19
2017-09-24T22:01:23.258Z,14.11
2017-09-24T22:03:50.726Z,14.11
2017-09-24T22:06:18.257Z,14.02
2017-09-24T22:08:45.774Z,13.98
2017-09-24T22:11:13.269Z,14.02
2017-09-24T22:13:40.727Z,14.01
2017-09-24T22:16:08.219Z,14.04
2017-09-24T22:18:35.735Z,13.92
2017-09-24T22:21:03.201Z,13.68
2017-09-24T22:23:30.694Z,13.64
2017-09-24T22:25:58.280Z,13.58
2017-09-24T22:28:25.741Z,13.60
2017-09-24T22:30:53.214Z,13.57
2017-09-24T22:33:20.707Z,13.46
2017-09-24T22:35:48.196Z,13.36
2017-09-24T22:38:15.676Z,13.41
2017-09-24T22:40:43.153Z,13.45
2017-09-24T22:43:10.658Z,13.46
2017-09-24T22:45:38.145Z,13.52
2017-09-24T22:48:05.660Z,13.53
2017-09-24T22:50:33.140Z,13.64
2017-09-24T22:53:00.676Z,13.57
2017-09-24T22:55:28.140Z,13.68
2017-09-24T22:57:55.612Z,13.55
2017-09-24T23:00:23.141Z,13.46
2017-09-24T23:02:50.602Z,13.37
2017-09-24T23:05:18.085Z,13.35
2017-09-24T23:07:45.635Z,13.47
2017-09-24T23:10:13.294Z,13.50
2017-09-24T23:12:40.815Z,13.44
2017-09-24T23:15:08.291Z,13.37
2017-09-24T23:17:35.761Z,13.30
2017-09-24T23:20:03.237Z,13.24
2017-09-24T23:22:30.731Z,13.15
2017-09-24T23:24:58.210Z,13.09
2017-09-24T23:27:25.694Z,13.14
2017-09-24T23:29:53.154Z,13.12
2017-09-24T23:32:20.752Z,13.12
2017-09-24T23:34:48.208Z,13.10
2017-09-24T23:37:15.668Z,13.16
2017-09-24T23:39:43.167Z,13.11
2017-09-24T23:42:10.649Z,13.16
2017-09-24T23:44:38.148Z,13.07
2017-09-24T23:47:05.622Z,13.02
2017-09-24T23:49:33.140Z,13.05
2017-09-24T23:52:00.628Z,12.87
2017-09-24T23:54:28.189Z,12.58
2017-09-24T23:56:55.654Z,12.56
2017-09-24T23:59:23.134Z,12.62
